Time;durP1;ratioP1;P1;durP2;ratioP2;P2;SDS_P1;SDS_P2;PMS_P1;PMS_P2;Temp;Humidity;BMP_temperature;BMP_pressure;BME280_temperature;BME280_humidity;BME280_pressure;Samples;Min_cycle;Max_cycle;Signal;HPM_P1;HPM_P2
2023/09/06 00:00:29;;;;;;;1.70;1.60;;;23.50;66.00;;;;;;5106530;28;20448;-73
2023/09/06 00:02:58;;;;;;;3.00;2.17;;;23.60;66.10;;;;;;5109758;27;20472;-73
2023/09/06 00:05:26;;;;;;;1.87;1.73;;;23.50;65.90;;;;;;5121266;27;20436;-73
2023/09/06 00:07:56;;;;;;;2.77;2.07;;;23.60;66.10;;;;;;5095274;28;20508;-73
2023/09/06 00:10:25;;;;;;;1.80;1.67;;;23.50;67.30;;;;;;5122150;28;20431;-73
2023/09/06 00:12:53;;;;;;;2.47;1.83;;;23.50;66.00;;;;;;5081409;28;20517;-73
2023/09/06 00:15:22;;;;;;;2.40;1.50;;;23.50;66.00;;;;;;5105810;28;20464;-73
2023/09/06 00:17:51;;;;;;;2.00;1.80;;;23.50;66.00;;;;;;5085095;28;20476;-73
2023/09/06 00:20:21;;;;;;;4.30;1.80;;;23.50;67.20;;;;;;5105858;28;20424;-73
2023/09/06 00:22:57;;;;;;;2.20;1.93;;;23.50;66.00;;;;;;5082491;28;20437;-73
2023/09/06 00:25:27;;;;;;;1.83;1.73;;;23.50;66.00;;;;;;5098606;28;20447;-73
2023/09/06 00:27:56;;;;;;;1.83;1.67;;;23.50;65.90;;;;;;5083736;28;20557;-73
2023/09/06 00:30:24;;;;;;;2.00;1.90;;;23.50;66.20;;;;;;5107173;28;20431;-73
2023/09/06 00:32:53;;;;;;;2.20;2.00;;;23.50;66.00;;;;;;5082379;28;20471;-73
2023/09/06 00:35:24;;;;;;;2.03;1.83;;;23.50;65.90;;;;;;5096703;28;20444;-73
2023/09/06 00:37:53;;;;;;;2.33;2.03;;;23.50;65.90;;;;;;5087068;28;20476;-73
2023/09/06 00:40:24;;;;;;;2.30;2.00;;;23.50;66.10;;;;;;5080507;28;20448;-73
2023/09/06 00:42:56;;;;;;;2.70;1.83;;;23.50;66.30;;;;;;5069944;28;20491;-73
2023/09/06 00:45:26;;;;;;;2.93;1.80;;;23.50;66.00;;;;;;5086193;28;20435;-73
2023/09/06 00:47:56;;;;;;;1.87;1.63;;;23.50;66.00;;;;;;5082028;28;20456;-73
2023/09/06 00:50:27;;;;;;;2.00;1.80;;;23.50;66.10;;;;;;5106183;28;20440;-73
2023/09/06 00:52:57;;;;;;;2.93;2.00;;;23.50;66.10;;;;;;5091513;28;20535;-73
2023/09/06 00:55:27;;;;;;;2.00;1.70;;;23.50;66.00;;;;;;5090829;28;20444;-73
2023/09/06 00:57:56;;;;;;;2.03;1.83;;;23.50;66.10;;;;;;5083964;28;20673;-73
2023/09/06 01:00:25;;;;;;;1.73;1.63;;;23.50;66.00;;;;;;5091298;28;20464;-73
2023/09/06 01:02:53;;;;;;;2.53;2.27;;;23.50;66.10;;;;;;5088853;28;20448;-73
2023/09/06 01:05:23;;;;;;;1.83;1.73;;;23.50;66.30;;;;;;5124937;27;20432;-73
2023/09/06 01:07:54;;;;;;;1.60;1.43;;;23.50;66.10;;;;;;5089986;28;20806;-73
2023/09/06 01:10:23;;;;;;;3.13;1.97;;;23.50;66.30;;;;;;5090884;28;20487;-73
2023/09/06 01:12:55;;;;;;;2.70;1.87;;;23.50;66.30;;;;;;5088984;28;21038;-73
2023/09/06 01:15:23;;;;;;;1.67;1.50;;;23.50;66.20;;;;;;5090381;28;20440;-73
2023/09/06 01:17:53;;;;;;;3.10;1.80;;;23.50;66.30;;;;;;5103358;28;20884;-73
2023/09/06 01:20:32;;;;;;;2.50;2.07;;;23.50;67.60;;;;;;5090750;28;20428;-73
2023/09/06 01:23:10;;;;;;;2.20;1.90;;;23.50;66.20;;;;;;5097167;28;20424;-73
2023/09/06 01:25:40;;;;;;;1.83;1.73;;;23.50;66.20;;;;;;5107100;28;20439;-73
2023/09/06 01:28:09;;;;;;;2.60;1.93;;;23.50;66.20;;;;;;5084907;28;20471;-73
2023/09/06 01:30:38;;;;;;;2.70;2.10;;;23.50;66.30;;;;;;5081941;28;20997;-73
2023/09/06 01:33:06;;;;;;;2.07;1.80;;;23.50;66.10;;;;;;5099696;27;20567;-73
2023/09/06 01:35:35;;;;;;;2.00;1.70;;;23.50;66.20;;;;;;5089232;28;20912;-73
2023/09/06 01:38:03;;;;;;;1.83;1.73;;;23.50;66.20;;;;;;5089029;28;20460;-73
2023/09/06 01:40:32;;;;;;;1.90;1.70;;;23.50;66.30;;;;;;5089880;28;20425;-73
2023/09/06 01:43:02;;;;;;;2.03;1.83;;;23.40;66.10;;;;;;5086433;28;20527;-73
2023/09/06 01:45:51;;;;;;;1.70;1.60;;;23.50;66.20;;;;;;5092210;28;20447;-73
2023/09/06 01:48:40;;;;;;;3.33;1.73;;;23.50;66.20;;;;;;5086323;28;20482;-73
2023/09/06 01:51:27;;;;;;;3.13;1.90;;;23.50;66.20;;;;;;5108095;28;20526;-72
2023/09/06 01:53:57;;;;;;;2.03;1.93;;;23.50;66.20;;;;;;5117858;27;21291;-72
2023/09/06 01:56:26;;;;;;;2.13;1.93;;;23.40;66.10;;;;;;5085906;28;20441;-72
2023/09/06 01:58:56;;;;;;;1.83;1.73;;;23.40;66.00;;;;;;5088622;28;20460;-72
2023/09/06 02:01:24;;;;;;;1.97;1.87;;;23.50;66.20;;;;;;5087870;28;20433;-72
2023/09/06 02:03:53;;;;;;;2.47;1.60;;;23.40;66.10;;;;;;5088272;28;20475;-72
2023/09/06 02:06:23;;;;;;;1.77;1.50;;;23.40;66.00;;;;;;5092680;28;20452;-72
2023/09/06 02:08:52;;;;;;;1.97;1.80;;;23.40;66.00;;;;;;5091837;28;20563;-72
2023/09/06 02:11:24;;;;;;;2.70;1.80;;;23.40;65.90;;;;;;5090006;28;20449;-72
2023/09/06 02:13:52;;;;;;;2.30;2.10;;;23.40;66.10;;;;;;5091521;28;20887;-72
2023/09/06 02:16:22;;;;;;;2.40;1.90;;;23.40;66.00;;;;;;5126556;27;20939;-72
2023/09/06 02:18:51;;;;;;;1.90;1.80;;;23.40;66.10;;;;;;5089704;28;20466;-72
2023/09/06 02:21:19;;;;;;;2.03;1.83;;;23.40;66.10;;;;;;5092790;28;20435;-72
2023/09/06 02:23:48;;;;;;;1.97;1.67;;;23.40;66.20;;;;;;5092814;28;20476;-72
2023/09/06 02:26:17;;;;;;;1.87;1.67;;;23.40;65.90;;;;;;5091251;28;20412;-72
2023/09/06 02:28:45;;;;;;;2.07;1.87;;;23.40;66.00;;;;;;5093892;28;20991;-72
2023/09/06 02:31:14;;;;;;;2.53;1.93;;;23.40;66.00;;;;;;5088527;28;20674;-72
2023/09/06 02:33:44;;;;;;;2.23;2.03;;;23.40;66.00;;;;;;5089733;28;20469;-72
2023/09/06 02:36:13;;;;;;;3.03;1.87;;;23.40;65.90;;;;;;5091868;28;20534;-72
2023/09/06 02:38:42;;;;;;;2.43;2.23;;;23.40;65.90;;;;;;5090048;28;20550;-72
2023/09/06 02:41:12;;;;;;;3.30;2.20;;;23.30;65.90;;;;;;5109550;28;20541;-72
2023/09/06 02:43:40;;;;;;;1.97;1.87;;;23.40;65.80;;;;;;5105989;28;20483;-72
2023/09/06 02:46:10;;;;;;;2.57;1.80;;;23.40;66.00;;;;;;5091636;28;20448;-72
2023/09/06 02:48:39;;;;;;;2.30;2.10;;;23.40;66.10;;;;;;5085641;28;21054;-72
2023/09/06 02:51:10;;;;;;;2.30;2.10;;;23.40;66.20;;;;;;5088836;28;20778;-72
2023/09/06 02:53:44;;;;;;;3.03;2.27;;;23.30;66.10;;;;;;5090927;28;20449;-72
2023/09/06 02:56:14;;;;;;;1.53;1.40;;;23.40;66.00;;;;;;5086431;28;20444;-66
2023/09/06 02:58:43;;;;;;;2.00;1.80;;;23.30;66.10;;;;;;5090970;28;20472;-67
2023/09/06 03:01:19;;;;;;;2.23;1.93;;;23.30;66.00;;;;;;5091990;28;20432;-66
2023/09/06 03:03:51;;;;;;;1.70;1.60;;;23.30;66.10;;;;;;5098516;27;20531;-66
2023/09/06 03:06:32;;;;;;;1.93;1.70;;;23.30;66.20;;;;;;5112698;27;20437;-66
2023/09/06 03:09:06;;;;;;;2.00;1.77;;;23.30;66.20;;;;;;5081307;28;20488;-66
2023/09/06 03:11:36;;;;;;;1.70;1.50;;;23.30;66.20;;;;;;5087961;28;20951;-66
2023/09/06 03:14:05;;;;;;;1.90;1.60;;;23.30;66.20;;;;;;5082735;28;20474;-66
2023/09/06 03:16:38;;;;;;;2.10;1.90;;;23.30;66.10;;;;;;5088476;28;20516;-67
2023/09/06 03:19:10;;;;;;;2.10;1.90;;;23.30;66.10;;;;;;5099445;28;20526;-65
2023/09/06 03:21:41;;;;;;;2.00;1.60;;;23.30;67.40;;;;;;5104840;28;20470;-66
2023/09/06 03:24:12;;;;;;;2.03;1.90;;;23.30;66.20;;;;;;5084575;28;20508;-66
2023/09/06 03:26:43;;;;;;;2.30;2.10;;;23.30;66.10;;;;;;5087575;28;20508;-66
2023/09/06 03:29:15;;;;;;;1.50;1.40;;;23.30;66.10;;;;;;5082201;28;20924;-66
2023/09/06 03:31:44;;;;;;;2.90;1.90;;;23.30;66.20;;;;;;5106733;28;20443;-66
2023/09/06 03:34:15;;;;;;;1.90;1.60;;;23.30;66.20;;;;;;5099990;28;20816;-66
2023/09/06 03:36:51;;;;;;;2.23;1.73;;;23.30;66.30;;;;;;5087563;28;20476;-67
2023/09/06 03:39:21;;;;;;;2.40;2.20;;;23.30;66.20;;;;;;5088304;28;20463;-68
2023/09/06 03:41:50;;;;;;;1.90;1.80;;;23.30;66.10;;;;;;5090299;28;21140;-68
2023/09/06 03:44:19;;;;;;;2.07;1.87;;;23.30;66.30;;;;;;5118522;27;20452;-68
2023/09/06 03:46:48;;;;;;;2.63;1.63;;;23.20;66.10;;;;;;5088153;28;20460;-68
2023/09/06 03:49:18;;;;;;;1.93;1.67;;;23.20;66.00;;;;;;5079207;28;20854;-67
2023/09/06 03:51:48;;;;;;;2.03;1.83;;;23.20;66.30;;;;;;5088663;28;20961;-67
2023/09/06 03:54:18;;;;;;;1.43;1.33;;;23.20;66.20;;;;;;5099481;28;21054;-68
2023/09/06 03:56:46;;;;;;;2.20;1.87;;;23.20;66.30;;;;;;5086330;28;20816;-68
2023/09/06 03:59:15;;;;;;;1.97;1.77;;;23.20;66.20;;;;;;5088439;28;20468;-67
2023/09/06 04:01:43;;;;;;;2.10;1.80;;;23.20;66.20;;;;;;5086527;28;20463;-67
2023/09/06 04:04:13;;;;;;;2.20;1.70;;;23.20;66.20;;;;;;5084261;28;20575;-67
2023/09/06 04:06:43;;;;;;;2.00;1.60;;;23.20;66.20;;;;;;5097103;28;20906;-67
2023/09/06 04:09:17;;;;;;;2.00;1.80;;;23.20;66.00;;;;;;5099961;28;20485;-67
2023/09/06 04:11:47;;;;;;;2.03;1.73;;;23.20;66.20;;;;;;5095122;28;20457;-67
2023/09/06 04:14:16;;;;;;;1.70;1.60;;;23.20;66.30;;;;;;5088266;28;20449;-67
2023/09/06 04:16:44;;;;;;;1.80;1.60;;;23.20;66.20;;;;;;5087685;28;20438;-67
2023/09/06 04:19:12;;;;;;;2.50;1.87;;;23.20;66.20;;;;;;5086004;28;20586;-72
2023/09/06 04:21:48;;;;;;;3.67;1.57;;;23.20;66.30;;;;;;5086124;28;20770;-73
2023/09/06 04:24:20;;;;;;;2.23;1.60;;;23.20;66.20;;;;;;5086044;28;20919;-73
2023/09/06 04:26:49;;;;;;;4.10;1.93;;;23.10;65.90;;;;;;5087632;28;20797;-73
2023/09/06 04:29:18;;;;;;;1.73;1.63;;;23.20;66.10;;;;;;5091915;28;20448;-73
2023/09/06 04:31:46;;;;;;;2.10;1.90;;;23.10;65.80;;;;;;5072583;28;20544;-73
2023/09/06 04:34:14;;;;;;;1.70;1.60;;;23.10;66.00;;;;;;5087793;28;20470;-73
2023/09/06 04:36:43;;;;;;;2.03;1.80;;;23.10;65.90;;;;;;5090689;28;20445;-72
2023/09/06 04:39:13;;;;;;;2.30;2.00;;;23.10;65.90;;;;;;5087096;28;20456;-73
2023/09/06 04:41:42;;;;;;;2.57;2.37;;;23.10;65.70;;;;;;5107946;27;20450;-73
2023/09/06 04:44:11;;;;;;;2.33;1.83;;;23.10;65.60;;;;;;5103014;28;20474;-73
2023/09/06 04:46:40;;;;;;;1.70;1.60;;;23.10;65.90;;;;;;5073737;28;21009;-73
2023/09/06 04:49:10;;;;;;;2.37;2.17;;;23.10;66.00;;;;;;5089646;28;20544;-72
2023/09/06 04:51:39;;;;;;;2.33;1.83;;;23.10;65.90;;;;;;5088927;28;20439;-73
2023/09/06 04:54:09;;;;;;;2.00;1.63;;;23.10;65.80;;;;;;5090626;28;20483;-73
2023/09/06 04:56:40;;;;;;;2.30;1.60;;;23.10;65.90;;;;;;5096613;28;20943;-73
2023/09/06 04:59:11;;;;;;;2.37;1.73;;;23.10;66.00;;;;;;5085405;28;20475;-73
2023/09/06 05:01:40;;;;;;;2.27;1.67;;;23.10;65.90;;;;;;5083366;28;20816;-73
2023/09/06 05:04:09;;;;;;;1.67;1.57;;;23.10;65.80;;;;;;5103947;28;20468;-71
2023/09/06 05:06:38;;;;;;;1.97;1.67;;;23.10;65.90;;;;;;5089553;28;20931;-73
2023/09/06 05:09:08;;;;;;;1.87;1.67;;;23.10;65.90;;;;;;5089149;28;20472;-73
2023/09/06 05:11:36;;;;;;;1.93;1.70;;;23.10;65.90;;;;;;5089395;28;20499;-73
2023/09/06 05:14:05;;;;;;;2.70;1.57;;;23.00;65.80;;;;;;5085124;28;20476;-73
2023/09/06 05:16:35;;;;;;;1.77;1.67;;;23.10;65.90;;;;;;5089618;28;20459;-72
2023/09/06 05:19:04;;;;;;;2.33;1.70;;;23.00;65.70;;;;;;5087040;28;20533;-73
2023/09/06 05:21:36;;;;;;;2.10;1.90;;;23.00;65.80;;;;;;5089206;28;20482;-73
2023/09/06 05:24:05;;;;;;;2.27;1.77;;;23.00;65.70;;;;;;5085361;28;20483;-73
2023/09/06 05:26:34;;;;;;;2.00;1.70;;;23.00;65.70;;;;;;5083410;28;20453;-72
2023/09/06 05:29:04;;;;;;;1.93;1.73;;;23.00;65.80;;;;;;5098632;28;20507;-72
2023/09/06 05:31:34;;;;;;;3.70;2.53;;;23.00;65.70;;;;;;5090478;28;20436;-68
2023/09/06 05:34:04;;;;;;;2.53;1.77;;;23.00;65.70;;;;;;5086630;27;20537;-67
2023/09/06 05:36:32;;;;;;;2.57;1.77;;;23.00;65.60;;;;;;5094390;27;20437;-67
2023/09/06 05:39:01;;;;;;;1.53;1.43;;;23.00;65.70;;;;;;5087996;28;20478;-68
2023/09/06 05:41:29;;;;;;;2.10;2.00;;;23.00;65.80;;;;;;5085398;28;20559;-67
2023/09/06 05:43:58;;;;;;;2.07;1.80;;;23.00;65.70;;;;;;5088730;28;20593;-67
2023/09/06 05:46:27;;;;;;;1.80;1.57;;;23.00;65.70;;;;;;5099450;28;20438;-67
2023/09/06 05:49:12;;;;;;;2.47;2.10;;;23.00;65.90;;;;;;5082665;28;20790;-67
2023/09/06 05:51:45;;;;;;;2.60;1.67;;;23.00;65.80;;;;;;5090633;28;20435;-65
2023/09/06 05:54:13;;;;;;;1.90;1.70;;;23.00;65.90;;;;;;5090156;28;20474;-68
2023/09/06 05:56:44;;;;;;;1.90;1.53;;;23.00;65.90;;;;;;5083069;28;20539;-68
2023/09/06 05:59:14;;;;;;;2.27;1.80;;;23.00;65.90;;;;;;5089776;28;20466;-67
2023/09/06 06:01:44;;;;;;;2.43;1.97;;;23.00;65.80;;;;;;5088969;28;20846;-67
2023/09/06 06:04:14;;;;;;;2.17;1.97;;;22.90;65.60;;;;;;5122115;27;20456;-67
2023/09/06 06:06:43;;;;;;;2.10;1.90;;;22.90;65.90;;;;;;5089636;28;20836;-67
2023/09/06 06:09:15;;;;;;;2.10;1.83;;;22.90;66.10;;;;;;5089186;28;20460;-67
2023/09/06 06:11:44;;;;;;;1.93;1.83;;;22.90;66.60;;;;;;5088702;28;21012;-67
2023/09/06 06:14:12;;;;;;;1.80;1.60;;;22.90;66.60;;;;;;5109302;28;20562;-68
2023/09/06 06:16:41;;;;;;;3.40;2.23;;;22.90;66.40;;;;;;5088145;28;20481;-68
2023/09/06 06:19:15;;;;;;;2.63;2.20;;;22.90;66.60;;;;;;5097647;27;20579;-68
2023/09/06 06:21:44;;;;;;;2.27;1.97;;;22.90;66.40;;;;;;5123180;27;20557;-67
2023/09/06 06:24:14;;;;;;;3.03;1.90;;;22.90;66.20;;;;;;5105500;28;20460;-66
2023/09/06 06:26:43;;;;;;;2.50;2.10;;;22.90;66.30;;;;;;5086993;28;20505;-67
2023/09/06 06:29:11;;;;;;;2.13;1.93;;;22.90;66.30;;;;;;5089076;28;20480;-67
2023/09/06 06:31:41;;;;;;;5.97;2.10;;;22.80;66.30;;;;;;5089068;28;20834;-67
2023/09/06 06:34:10;;;;;;;1.83;1.73;;;22.80;66.50;;;;;;5100041;28;20642;-68
2023/09/06 06:36:40;;;;;;;2.67;2.30;;;22.80;66.40;;;;;;5088424;28;20943;-67
2023/09/06 06:39:10;;;;;;;3.70;2.20;;;22.80;66.50;;;;;;5088146;28;20517;-66
2023/09/06 06:41:39;;;;;;;2.27;1.97;;;22.80;66.50;;;;;;5103546;28;20964;-68
2023/09/06 06:44:08;;;;;;;2.37;2.17;;;22.80;66.60;;;;;;5084420;28;20468;-67
2023/09/06 06:46:38;;;;;;;2.50;2.30;;;22.80;66.50;;;;;;5087853;28;20444;-68
2023/09/06 06:49:08;;;;;;;1.97;1.77;;;22.80;66.50;;;;;;5088050;28;20476;-68
2023/09/06 06:51:42;;;;;;;2.70;1.80;;;22.80;66.50;;;;;;5088497;28;20478;-68
2023/09/06 06:54:14;;;;;;;3.73;1.53;;;22.80;66.50;;;;;;5086472;28;20838;-68
2023/09/06 06:56:43;;;;;;;2.00;1.80;;;22.90;66.60;;;;;;5121589;27;20452;-68
2023/09/06 06:59:12;;;;;;;2.20;2.00;;;22.90;66.70;;;;;;5087138;28;20921;-67
2023/09/06 07:01:43;;;;;;;1.47;1.37;;;22.90;66.60;;;;;;5087902;28;20456;-67
2023/09/06 07:04:12;;;;;;;1.93;1.60;;;22.90;66.60;;;;;;5069409;28;20472;-67
2023/09/06 07:06:42;;;;;;;2.47;1.63;;;22.90;66.70;;;;;;5087825;28;20451;-68
2023/09/06 07:09:10;;;;;;;1.73;1.63;;;22.90;66.70;;;;;;5074820;27;20762;-68
2023/09/06 07:11:39;;;;;;;1.67;1.57;;;22.90;66.70;;;;;;5073588;28;20862;-68
2023/09/06 07:14:07;;;;;;;2.27;1.77;;;22.80;66.50;;;;;;5097875;28;20571;-68
2023/09/06 07:16:36;;;;;;;1.73;1.63;;;22.90;66.70;;;;;;5083687;28;20527;-68
2023/09/06 07:19:05;;;;;;;2.40;2.20;;;22.90;66.60;;;;;;5083968;28;20481;-67
2023/09/06 07:21:33;;;;;;;2.30;2.10;;;22.80;66.50;;;;;;5088213;28;20559;-67
2023/09/06 07:24:03;;;;;;;1.87;1.70;;;22.90;66.60;;;;;;5099103;28;20510;-67
2023/09/06 07:26:32;;;;;;;2.00;1.63;;;22.90;66.60;;;;;;5102497;28;20517;-67
2023/09/06 07:29:00;;;;;;;3.20;1.90;;;22.90;66.60;;;;;;5111980;27;20503;-67
2023/09/06 07:31:28;;;;;;;2.10;1.90;;;22.90;66.70;;;;;;5087063;28;20510;-67
2023/09/06 07:33:58;;;;;;;2.27;1.93;;;22.90;66.60;;;;;;5083165;28;20736;-68
2023/09/06 07:36:26;;;;;;;2.40;2.00;;;22.90;66.70;;;;;;5084549;28;20884;-68
2023/09/06 07:38:55;;;;;;;1.63;1.40;;;22.90;66.60;;;;;;5087159;28;21033;-68
2023/09/06 07:41:27;;;;;;;2.10;1.90;;;22.90;66.70;;;;;;5105727;28;20470;-67
2023/09/06 07:43:55;;;;;;;2.30;1.67;;;22.90;66.70;;;;;;5088625;28;20493;-67
2023/09/06 07:46:28;;;;;;;2.47;2.20;;;22.90;66.60;;;;;;5097491;28;20437;-68
2023/09/06 07:48:56;;;;;;;3.97;2.10;;;22.90;66.60;;;;;;5103197;28;20595;-67
2023/09/06 07:51:26;;;;;;;2.17;1.97;;;23.00;66.70;;;;;;5085426;28;20447;-68
2023/09/06 07:53:55;;;;;;;2.00;1.67;;;23.00;66.80;;;;;;5098658;28;20469;-68
2023/09/06 07:56:25;;;;;;;3.70;2.20;;;23.00;66.70;;;;;;5118932;27;20866;-68
2023/09/06 07:58:55;;;;;;;1.70;1.60;;;23.00;66.80;;;;;;5078198;28;20473;-67
2023/09/06 08:01:24;;;;;;;1.87;1.73;;;22.90;66.70;;;;;;5103441;28;20893;-67
2023/09/06 08:03:52;;;;;;;3.93;2.43;;;22.90;66.70;;;;;;5085410;28;20475;-68
2023/09/06 08:06:21;;;;;;;2.17;1.80;;;22.90;66.60;;;;;;5105065;28;20948;-66
2023/09/06 08:08:50;;;;;;;2.27;1.93;;;22.90;66.60;;;;;;5105332;28;20507;-68
2023/09/06 08:11:20;;;;;;;2.33;2.13;;;22.90;66.70;;;;;;5082773;28;20441;-67
2023/09/06 08:13:50;;;;;;;1.67;1.57;;;22.90;66.60;;;;;;5071303;28;20915;-67
2023/09/06 08:16:19;;;;;;;2.57;1.80;;;22.90;66.60;;;;;;5105594;28;20437;-68
2023/09/06 08:18:48;;;;;;;2.37;1.63;;;22.90;66.70;;;;;;5081506;28;20999;-67
2023/09/06 08:21:19;;;;;;;1.77;1.67;;;22.90;66.60;;;;;;5087788;28;20448;-68
2023/09/06 08:23:48;;;;;;;2.10;1.83;;;22.90;66.60;;;;;;5081449;28;20588;-67
2023/09/06 08:26:17;;;;;;;2.10;1.90;;;22.90;66.70;;;;;;5103753;28;20952;-67
2023/09/06 08:28:45;;;;;;;2.57;2.30;;;22.90;66.60;;;;;;5085346;28;20518;-68
2023/09/06 08:31:15;;;;;;;2.53;2.17;;;22.90;66.70;;;;;;5087830;28;20458;-68
2023/09/06 08:33:45;;;;;;;2.93;2.20;;;22.90;66.70;;;;;;5082902;28;20464;-68
2023/09/06 08:36:15;;;;;;;2.40;2.20;;;22.90;66.70;;;;;;5104582;28;20862;-68
2023/09/06 08:38:44;;;;;;;2.50;2.30;;;22.90;66.60;;;;;;5085083;28;20464;-67
2023/09/06 08:41:13;;;;;;;3.20;2.13;;;22.90;66.70;;;;;;5087158;28;20475;-67
2023/09/06 08:43:44;;;;;;;3.17;2.20;;;22.90;66.70;;;;;;5080250;28;20563;-67
2023/09/06 08:46:22;;;;;;;4.20;2.10;;;22.90;67.00;;;;;;5104580;28;20432;-68
2023/09/06 08:48:52;;;;;;;2.27;2.03;;;22.90;66.80;;;;;;5097902;28;20480;-67
2023/09/06 08:51:22;;;;;;;2.40;2.03;;;22.90;66.90;;;;;;5080141;28;20412;-67
2023/09/06 08:53:53;;;;;;;2.63;2.43;;;22.90;67.10;;;;;;5083330;28;20469;-67
2023/09/06 08:56:23;;;;;;;2.03;1.83;;;22.90;67.00;;;;;;5083712;28;20452;-67
2023/09/06 08:58:53;;;;;;;2.47;2.27;;;22.90;67.10;;;;;;5104861;28;20504;-67
2023/09/06 09:01:23;;;;;;;1.87;1.50;;;22.90;67.00;;;;;;5087557;28;21049;-67
2023/09/06 09:03:52;;;;;;;2.50;2.30;;;22.90;67.00;;;;;;5080979;28;21084;-68
2023/09/06 09:06:21;;;;;;;5.53;2.43;;;22.90;67.10;;;;;;5085808;28;20429;-67
2023/09/06 09:08:51;;;;;;;2.40;2.10;;;22.90;67.00;;;;;;5086021;28;20468;-67
2023/09/06 09:11:20;;;;;;;3.27;2.33;;;22.90;66.90;;;;;;5084467;28;20448;-68
2023/09/06 09:13:48;;;;;;;3.20;2.20;;;22.90;67.10;;;;;;5123303;27;21041;-67
2023/09/06 09:16:17;;;;;;;2.60;2.23;;;22.90;66.90;;;;;;5107529;28;20493;-67
2023/09/06 09:18:47;;;;;;;2.40;2.20;;;22.90;67.00;;;;;;5084519;28;21055;-67
2023/09/06 09:21:16;;;;;;;3.60;2.27;;;23.00;66.70;;;;;;5090169;28;20448;-67
2023/09/06 09:23:47;;;;;;;2.53;2.30;;;23.00;66.70;;;;;;5089665;28;20484;-67
2023/09/06 09:26:19;;;;;;;3.70;2.10;;;23.00;66.80;;;;;;5082388;28;20523;-67
2023/09/06 09:28:48;;;;;;;2.90;2.20;;;23.00;66.70;;;;;;5088396;28;20476;-67
2023/09/06 09:31:17;;;;;;;2.50;1.97;;;23.00;66.70;;;;;;5073578;28;20874;-67
2023/09/06 09:33:51;;;;;;;2.23;1.87;;;23.00;66.70;;;;;;5080384;28;20476;-67
2023/09/06 09:36:20;;;;;;;3.07;2.27;;;23.00;66.70;;;;;;5090064;28;20420;-67
2023/09/06 09:38:49;;;;;;;2.97;2.20;;;23.00;66.70;;;;;;5086696;28;20836;-67
2023/09/06 09:41:19;;;;;;;2.30;1.97;;;23.00;66.70;;;;;;5090005;28;20531;-67
2023/09/06 09:43:48;;;;;;;2.90;2.60;;;22.90;66.60;;;;;;5081110;28;21119;-67
2023/09/06 09:46:27;;;;;;;3.97;2.50;;;22.90;66.70;;;;;;5104386;28;20448;-67
2023/09/06 09:49:01;;;;;;;2.70;2.50;;;22.90;66.70;;;;;;5083813;28;20468;-67
2023/09/06 09:51:33;;;;;;;3.20;2.30;;;22.90;66.90;;;;;;5092889;27;20946;-67
2023/09/06 09:54:03;;;;;;;2.83;2.53;;;22.90;66.90;;;;;;5087289;28;20464;-67
2023/09/06 09:56:33;;;;;;;2.57;2.37;;;22.90;67.00;;;;;;5068585;28;20914;-67
2023/09/06 09:59:03;;;;;;;2.20;1.80;;;22.90;67.00;;;;;;5089902;28;20529;-67
2023/09/06 10:01:32;;;;;;;2.53;2.17;;;22.90;66.80;;;;;;5090192;28;20820;-67
2023/09/06 10:04:06;;;;;;;2.50;2.30;;;22.90;66.60;;;;;;5083684;28;20469;-67
2023/09/06 10:06:35;;;;;;;3.10;2.37;;;22.90;66.70;;;;;;5093851;28;20854;-67
2023/09/06 10:09:12;;;;;;;2.70;2.33;;;22.90;66.70;;;;;;5088359;28;20566;-67
2023/09/06 10:11:43;;;;;;;2.13;1.93;;;22.90;66.70;;;;;;5087164;28;20435;-67
2023/09/06 10:14:13;;;;;;;2.50;2.30;;;22.90;66.60;;;;;;5107522;28;20644;-67
2023/09/06 10:16:41;;;;;;;2.60;2.03;;;22.90;66.70;;;;;;5088800;28;20440;-67
2023/09/06 10:19:12;;;;;;;4.40;1.83;;;22.90;66.60;;;;;;5080279;28;20485;-67
2023/09/06 10:21:43;;;;;;;3.60;2.30;;;22.90;66.70;;;;;;5086327;28;20846;-67
2023/09/06 10:24:19;;;;;;;2.93;2.63;;;22.90;66.70;;;;;;5082831;28;20495;-67
2023/09/06 10:26:49;;;;;;;5.07;3.37;;;23.00;67.10;;;;;;5088099;28;20448;-67
2023/09/06 10:29:24;;;;;;;3.60;2.03;;;23.00;66.70;;;;;;5088162;28;20521;-67
2023/09/06 10:31:53;;;;;;;3.33;2.37;;;23.00;66.70;;;;;;5084934;28;20445;-68
2023/09/06 10:34:23;;;;;;;2.53;2.33;;;23.00;66.70;;;;;;5074005;28;20485;-68
2023/09/06 10:36:54;;;;;;;3.33;3.03;;;23.00;66.70;;;;;;5086187;28;20443;-68
2023/09/06 10:39:25;;;;;;;3.43;3.13;;;23.00;65.60;;;;;;5084711;28;20445;-68
2023/09/06 10:42:17;;;;;;;3.92;3.53;;;23.10;62.00;;;;;;5113920;27;20551;-66
2023/09/06 10:45:15;;;;;;;10.00;3.50;;;23.30;58.90;;;;;;5073917;28;20229;-68
2023/09/06 10:47:43;;;;;;;5.00;3.47;;;23.40;59.90;;;;;;5077464;28;21032;-69
2023/09/06 10:50:19;;;;;;;2.90;2.70;;;23.30;60.30;;;;;;5085518;28;20532;-68
2023/09/06 10:52:51;;;;;;;4.10;2.90;;;23.30;60.20;;;;;;5085616;28;20589;-68
2023/09/06 10:55:22;;;;;;;3.20;2.90;;;23.30;61.00;;;;;;5088237;28;20439;-69
2023/09/06 10:57:54;;;;;;;4.67;3.43;;;23.30;61.90;;;;;;5100795;28;20484;-68
2023/09/06 11:00:26;;;;;;;3.40;3.10;;;23.20;62.20;;;;;;5084597;28;20855;-68
2023/09/06 11:03:23;;;;;;;3.10;2.47;;;23.20;62.60;;;;;;5082139;28;20449;-68
2023/09/06 11:05:58;;;;;;;3.73;3.43;;;23.20;62.80;;;;;;5081578;28;20938;-68
2023/09/06 11:08:30;;;;;;;3.37;3.07;;;23.20;62.80;;;;;;5082894;28;20467;-69
2023/09/06 11:11:06;;;;;;;2.97;2.77;;;23.10;63.00;;;;;;5082268;28;20444;-68
2023/09/06 11:13:35;;;;;;;3.57;3.27;;;23.10;63.10;;;;;;5081548;28;20467;-68
2023/09/06 11:16:05;;;;;;;3.13;2.83;;;23.10;63.30;;;;;;5079829;28;20450;-68
2023/09/06 11:18:44;;;;;;;3.93;2.77;;;23.10;63.40;;;;;;5078109;28;20479;-69
2023/09/06 11:21:18;;;;;;;3.70;3.40;;;23.10;63.60;;;;;;5082604;28;20447;-68
2023/09/06 11:23:48;;;;;;;3.47;3.17;;;23.10;63.40;;;;;;5079909;28;21007;-68
2023/09/06 11:26:17;;;;;;;3.03;2.70;;;23.10;63.40;;;;;;5081917;28;20439;-68
2023/09/06 11:28:47;;;;;;;3.00;2.70;;;23.10;63.60;;;;;;5079321;28;20575;-68
2023/09/06 11:31:25;;;;;;;2.87;2.63;;;23.10;63.60;;;;;;5082249;28;20489;-68
2023/09/06 11:33:57;;;;;;;3.20;2.88;;;23.10;63.70;;;;;;5082497;28;20852;-62
2023/09/06 11:36:31;;;;;;;2.43;2.23;;;23.20;62.90;;;;;;5100141;28;20673;-68
2023/09/06 11:39:11;;;;;;;3.03;2.70;;;23.30;62.60;;;;;;5080968;28;20497;-68
2023/09/06 11:41:41;;;;;;;3.33;2.30;;;23.30;64.30;;;;;;5080418;28;20445;-68
2023/09/06 11:44:13;;;;;;;4.87;2.77;;;23.30;63.00;;;;;;5107698;27;20507;-68
2023/09/06 11:46:46;;;;;;;2.90;2.57;;;23.20;63.10;;;;;;5077008;28;20824;-68
2023/09/06 11:49:17;;;;;;;6.40;2.83;;;23.20;63.20;;;;;;5093553;28;20611;-67
2023/09/06 11:51:49;;;;;;;3.80;3.03;;;23.20;63.20;;;;;;5103217;28;20428;-67
2023/09/06 11:54:18;;;;;;;4.93;4.13;;;23.20;61.70;;;;;;5099799;28;20472;-67
2023/09/06 11:56:48;;;;;;;4.73;3.37;;;23.30;57.20;;;;;;5084219;28;20464;-68
2023/09/06 11:59:20;;;;;;;4.53;3.30;;;23.40;55.30;;;;;;5076407;28;20917;-68
2023/09/06 12:01:52;;;;;;;4.20;3.10;;;23.60;55.00;;;;;;5092083;28;20529;-68
2023/09/06 12:04:22;;;;;;;5.63;2.80;;;23.60;56.80;;;;;;5115080;27;20521;-68
2023/09/06 12:06:56;;;;;;;5.03;3.40;;;23.60;57.70;;;;;;5079595;28;20451;-68
2023/09/06 12:09:25;;;;;;;4.23;3.80;;;23.60;57.50;;;;;;5079044;28;20460;-67
2023/09/06 12:11:53;;;;;;;4.30;3.27;;;23.50;57.60;;;;;;5080066;28;20420;-67
2023/09/06 12:14:23;;;;;;;4.10;3.50;;;23.50;57.70;;;;;;5079930;28;20494;-67
2023/09/06 12:16:51;;;;;;;4.63;3.40;;;23.40;58.00;;;;;;5099097;28;20971;-68
2023/09/06 12:19:20;;;;;;;3.83;3.03;;;23.40;58.40;;;;;;5097908;28;20492;-67
2023/09/06 12:21:48;;;;;;;3.47;3.00;;;23.40;58.90;;;;;;5073430;28;20452;-67
2023/09/06 12:24:18;;;;;;;3.87;3.57;;;23.40;59.10;;;;;;5083257;28;20594;-67
2023/09/06 12:26:47;;;;;;;3.23;2.93;;;23.30;59.20;;;;;;5078427;28;20509;-68
2023/09/06 12:29:16;;;;;;;3.63;3.00;;;23.40;59.60;;;;;;5088352;28;20819;-68
2023/09/06 12:31:45;;;;;;;3.50;3.20;;;23.40;59.60;;;;;;5074164;28;20444;-67
2023/09/06 12:34:13;;;;;;;3.60;2.90;;;23.30;59.40;;;;;;5078935;28;20979;-67
2023/09/06 12:36:42;;;;;;;4.43;3.50;;;23.30;59.90;;;;;;5082224;28;20824;-67
2023/09/06 12:39:11;;;;;;;3.50;3.20;;;23.40;59.90;;;;;;5097174;28;20615;-68
2023/09/06 12:41:42;;;;;;;3.37;3.07;;;23.40;60.00;;;;;;5079335;28;20477;-67
2023/09/06 12:44:10;;;;;;;10.47;3.57;;;23.40;60.40;;;;;;5077561;28;20460;-68
2023/09/06 12:46:39;;;;;;;2.80;2.60;;;23.40;60.40;;;;;;5073012;28;20521;-67
2023/09/06 12:49:07;;;;;;;3.10;2.90;;;23.40;60.50;;;;;;5066750;28;20480;-67
2023/09/06 12:51:37;;;;;;;2.83;2.50;;;23.40;60.70;;;;;;5106895;27;20432;-67
2023/09/06 12:54:06;;;;;;;3.57;3.27;;;23.40;60.70;;;;;;5078936;28;20460;-67
2023/09/06 12:56:36;;;;;;;4.07;2.90;;;23.40;60.50;;;;;;5082548;28;20460;-67
2023/09/06 12:59:05;;;;;;;3.20;2.90;;;23.40;60.70;;;;;;5097694;28;20460;-67
2023/09/06 13:01:34;;;;;;;2.60;2.40;;;23.40;60.80;;;;;;5103175;28;20985;-67
2023/09/06 13:04:04;;;;;;;3.80;3.40;;;23.40;61.00;;;;;;5099433;28;20581;-68